Terminal Aerodrome Forecast
Issued by NWS Wilmington, OH

Current Version | Previous Version | Graphics & Text | Print | Product List | Glossary On
Versions: 1 2 3 4 5 6 7 8 9 10 11 12 13 14 15 16 17
177
FTUS41 KILN 160329 AAA
TAFDAY
TAF AMD
KDAY 160329Z 1603/1624 29012KT 3SM -SN BR OVC015
     FM160400 27010KT P6SM OVC015
     FM160500 25008KT P6SM OVC022=

USA.gov is the U.S. government's official web portal to all federal, state and local government web resources and services.